Thunder radar more information blitzortung!


avis per Pluja more information rain snow radar


Visita la nostra xarxa de llocs de meteo:

Template documentation
and downloads

And another site



Rain From: 18-10-2018 10:00 Until: 16:59 warning for: Rain Level: Yellow info button

Pagina Historial Weather Underground text

Diari Resum Juny 13, 2017 Unitats:  Imperial    Mètric   Tant
« Previous Dia
SegĂźent Dia »
Diari Setmana Mensual Anual Personalitzada
  Maxima: Minima: Media:
Temperatura: TemperatureC °F 19.3 °F 29.6 °F
Punt de rosada: DewpointC °F 3.9 °F 10.5 °F
Humitat: Humidity % 17 % 32 %
Wind Speed: WindSpeedKMH mph 0.0 mph 7.3 mph
RĂ fegues de vent: WindSpeedGustKMH mph - -
Vent:- - SSW
Pression baro: PressurehPa in 1009.0 in -
Precipitacions: 0.0 in    
Historical Graphs
 
 
Dades de taula per Juny 13, 2017
Temps Temperatura Punt de rosada Pression baro Vent Wind Speed RĂ fegues de vent Humitat Rainfall Rate (Hourly)
TemperatureC °F DewpointC °F PressurehPa in Calm     Humidity % HourlyPrecipMM in
00:00 20.0 °F 9.6 °F 1012.8 in Calm   3.2 mph 51 % 0.0 in
00:04 24.3 °F 9.8 °F 1012.8 in SW 4.2 mph 4.2 mph 40 % 0.0 in
00:10 19.7 °F 9.3 °F 1012.8 in SW 1.6 mph 1.6 mph 51 % 0.0 in
00:20 19.6 °F 9.4 °F 1012.8 in SW 1.6 mph 1.6 mph 52 % 0.0 in
00:30 19.5 °F 9.4 °F 1012.8 in SW 1.6 mph 3.2 mph 52 % 0.0 in
00:40 19.4 °F 9.3 °F 1012.8 in Calm   1.6 mph 52 % 0.0 in
00:50 19.4 °F 9.6 °F 1012.8 in Calm     53 % 0.0 in
01:00 19.4 °F 9.6 °F 1012.8 in Calm     53 % 0.0 in
01:10 19.5 °F 9.9 °F 1012.8 in Calm     54 % 0.0 in
01:20 19.4 °F 9.8 °F 1012.8 in Calm     54 % 0.0 in
01:30 19.3 °F 9.8 °F 1012.8 in Calm   1.6 mph 54 % 0.0 in
01:40 19.3 °F 9.8 °F 1012.8 in Calm   1.6 mph 54 % 0.0 in
01:50 19.6 °F 10.1 °F 1013.8 in Calm   3.2 mph 54 % 0.0 in
02:00 19.8 °F 10.2 °F 1013.8 in SW 1.6 mph 3.2 mph 54 % 0.0 in
02:10 20.0 °F 10.1 °F 1013.8 in Calm   1.6 mph 53 % 0.0 in
02:20 20.3 °F 10.1 °F 1013.8 in SW 1.6 mph 3.2 mph 52 % 0.0 in
02:30 20.6 °F 10.4 °F 1013.8 in SW 1.6 mph 3.2 mph 52 % 0.0 in
02:40 21.5 °F 10.9 °F 1013.8 in Calm   1.6 mph 51 % 0.0 in
02:50 22.1 °F 11.5 °F 1013.8 in Calm   1.6 mph 51 % 0.0 in
03:00 22.6 °F 11.7 °F 1013.8 in Calm     50 % 0.0 in
03:10 23.3 °F 12.0 °F 1013.8 in SSE 1.6 mph 1.6 mph 49 % 0.0 in
03:20 24.0 °F 12.6 °F 1013.8 in Calm   1.6 mph 49 % 0.0 in
03:30 24.2 °F 12.5 °F 1013.8 in East 1.6 mph 3.2 mph 48 % 0.0 in
03:40 24.2 °F 12.5 °F 1013.8 in ESE 1.6 mph 3.2 mph 48 % 0.0 in
03:50 24.8 °F 12.7 °F 1013.8 in SW 1.6 mph 3.2 mph 47 % 0.0 in
03:55 25.0 °F 12.6 °F 1013.8 in Calm     46 % 0.0 in
04:05 25.6 °F 13.1 °F 1013.8 in Calm   4.8 mph 46 % 0.0 in
04:15 26.1 °F 13.2 °F 1013.8 in Calm   3.2 mph 45 % 0.0 in
04:25 26.5 °F 13.3 °F 1013.8 in ENE 1.6 mph 4.8 mph 44 % 0.0 in
04:35 26.7 °F 13.4 °F 1013.8 in ESE 3.2 mph 3.2 mph 44 % 0.0 in
04:45 27.2 °F 13.6 °F 1012.8 in SSE 1.6 mph 1.6 mph 43 % 0.0 in
04:55 27.6 °F 13.9 °F 1013.8 in SSE 3.2 mph 3.2 mph 43 % 0.0 in
05:05 28.4 °F 14.2 °F 1013.8 in SSW 1.6 mph 6.4 mph 42 % 0.0 in
05:15 28.7 °F 14.2 °F 1013.8 in SW 4.8 mph 4.8 mph 41 % 0.0 in
05:25 29.4 °F 14.4 °F 1013.8 in SW 1.6 mph 4.8 mph 40 % 0.0 in
05:35 30.0 °F 14.9 °F 1013.8 in SW 1.6 mph 4.8 mph 40 % 0.0 in
10:38 30.6 °F 15.1 °F 1013.8 in SW 1.9 mph 2.6 mph 39 % 0.0 in
10:43 30.3 °F 14.8 °F 1013.8 in SW 11.1 mph 11.1 mph 39 % 0.0 in
10:48 30.4 °F 14.5 °F 1013.8 in SSE 7.4 mph 7.4 mph 38 % 0.0 in
10:53 30.7 °F 14.8 °F 1013.8 in South 7.9 mph 7.9 mph 38 % 0.0 in
10:58 30.5 °F 14.2 °F 1013.8 in WSW 6.1 mph 6.1 mph 37 % 0.0 in
11:03 31.3 °F 14.4 °F 1013.8 in SSE 7.4 mph 7.4 mph 36 % 0.0 in
11:08 31.6 °F 14.7 °F 1013.8 in SSW 3.7 mph 3.7 mph 36 % 0.0 in
11:13 31.8 °F 14.9 °F 1013.8 in West 5.8 mph 5.8 mph 36 % 0.0 in
11:18 31.4 °F 14.1 °F 1013.8 in South 7.4 mph 7.4 mph 35 % 0.0 in
11:23 31.2 °F 13.9 °F 1013.8 in SSE 11.1 mph 11.1 mph 35 % 0.0 in
11:28 31.7 °F 14.3 °F 1013.8 in SSW 5.6 mph 5.6 mph 35 % 0.0 in
11:38 32.0 °F 13.7 °F 1013.8 in WSW 11.1 mph 11.1 mph 33 % 0.0 in
11:43 32.0 °F 13.7 °F 1013.8 in ENE 5.6 mph 5.6 mph 33 % 0.0 in
11:48 31.7 °F 13.4 °F 1013.8 in ESE 3.7 mph 5.0 mph 33 % 0.0 in
11:53 32.4 °F 14.1 °F 1013.8 in South 1.9 mph 2.3 mph 33 % 0.0 in
11:54 32.4 °F 14.1 °F 1013.8 in South 1.9 mph 2.3 mph 33 % 0.0 in
11:59 32.3 °F 14.0 °F 1013.8 in South 1.9 mph 2.3 mph 33 % 0.0 in
12:04 31.9 °F 13.6 °F 1012.8 in ESE 9.7 mph 9.7 mph 33 % 0.0 in
12:09 32.7 °F 13.8 °F 1012.8 in SSE 5.6 mph 5.6 mph 32 % 0.0 in
12:14 33.0 °F 14.1 °F 1012.8 in SW 9.3 mph 9.3 mph 32 % 0.0 in
12:19 32.9 °F 13.6 °F 1012.8 in SE 7.9 mph 7.9 mph 31 % 0.0 in
12:24 32.6 °F 13.3 °F 1012.8 in ESE 2.6 mph 6.4 mph 31 % 0.0 in
12:29 32.2 °F 12.9 °F 1012.8 in SW 9.3 mph 9.3 mph 31 % 0.0 in
12:34 32.9 °F 13.6 °F 1012.8 in WSW 9.7 mph 9.7 mph 31 % 0.0 in
12:39 33.2 °F 13.3 °F 1012.8 in SE 4.2 mph 4.2 mph 30 % 0.0 in
12:44 33.3 °F 13.4 °F 1012.8 in South 3.9 mph 5.3 mph 30 % 0.0 in
12:49 34.0 °F 14.0 °F 1012.8 in SW 11.1 mph 11.1 mph 30 % 0.0 in
12:54 34.0 °F 13.4 °F 1012.8 in SE 5.6 mph 5.6 mph 29 % 0.0 in
12:59 33.8 °F 13.8 °F 1012.8 in ENE 6.1 mph 6.1 mph 30 % 0.0 in
13:04 32.8 °F 12.9 °F 1011.7 in ESE 11.1 mph 11.1 mph 30 % 0.0 in
13:09 32.8 °F 12.9 °F 1011.7 in NE 9.3 mph 9.3 mph 30 % 0.0 in
13:14 32.4 °F 12.6 °F 1011.7 in East 13.0 mph 13.0 mph 30 % 0.0 in
13:19 32.6 °F 12.8 °F 1011.7 in ESE 14.8 mph 14.8 mph 30 % 0.0 in
13:24 32.6 °F 12.8 °F 1011.7 in East 14.8 mph 14.8 mph 30 % 0.0 in
13:29 32.7 °F 12.8 °F 1011.7 in ESE 10.0 mph 10.0 mph 30 % 0.0 in
13:34 32.7 °F 12.8 °F 1011.7 in ENE 14.8 mph 14.8 mph 30 % 0.0 in
13:39 32.7 °F 12.8 °F 1011.7 in ESE 9.3 mph 9.3 mph 30 % 0.0 in
13:44 32.7 °F 12.8 °F 1011.7 in SW 9.3 mph 9.3 mph 30 % 0.0 in
13:49 33.9 °F 13.4 °F 1011.7 in ESE 9.7 mph 9.7 mph 29 % 0.0 in
13:54 33.6 °F 13.1 °F 1011.7 in NE 11.1 mph 11.1 mph 29 % 0.0 in
13:59 33.3 °F 12.3 °F 1011.7 in East 7.4 mph 7.4 mph 28 % 0.0 in
14:04 33.7 °F 13.2 °F 1011.7 in SSW 6.4 mph 6.4 mph 29 % 0.0 in
14:09 33.9 °F 12.8 °F 1011.7 in WSW 13.0 mph 13.0 mph 28 % 0.0 in
14:14 34.5 °F 13.3 °F 1011.7 in ESE 9.5 mph 9.5 mph 28 % 0.0 in
14:19 34.6 °F 13.4 °F 1010.7 in ESE 3.7 mph 3.7 mph 28 % 0.0 in
14:24 34.5 °F 12.8 °F 1010.7 in WSW 6.1 mph 6.1 mph 27 % 0.0 in
14:29 35.0 °F 12.6 °F 1010.7 in SW 9.3 mph 9.3 mph 26 % 0.0 in
14:34 35.2 °F 12.8 °F 1010.7 in SW 11.1 mph 11.1 mph 26 % 0.0 in
14:39 34.9 °F 13.1 °F 1010.7 in SSW 7.4 mph 7.4 mph 27 % 0.0 in
14:44 34.9 °F 13.1 °F 1010.7 in SW 16.9 mph 16.9 mph 27 % 0.0 in
14:49 34.3 °F 12.1 °F 1011.7 in SW 14.8 mph 14.8 mph 26 % 0.0 in
14:54 34.7 °F 12.9 °F 1011.7 in SW 13.0 mph 13.0 mph 27 % 0.0 in
14:59 34.4 °F 12.1 °F 1011.7 in WSW 14.8 mph 14.8 mph 26 % 0.0 in
15:04 34.6 °F 12.3 °F 1011.7 in WSW 11.9 mph 11.9 mph 26 % 0.0 in
15:09 34.4 °F 12.1 °F 1011.7 in SSW 11.1 mph 11.1 mph 26 % 0.0 in
15:14 34.7 °F 12.4 °F 1011.7 in West 11.1 mph 11.1 mph 26 % 0.0 in
15:19 34.8 °F 12.4 °F 1011.7 in SSW 11.1 mph 11.1 mph 26 % 0.0 in
15:24 34.7 °F 12.4 °F 1011.7 in SSW 9.3 mph 9.3 mph 26 % 0.0 in
15:29 34.9 °F 12.6 °F 1011.7 in WSW 6.9 mph 6.9 mph 26 % 0.0 in
15:34 34.5 °F 12.2 °F 1011.7 in WSW 11.1 mph 11.1 mph 26 % 0.0 in
15:39 34.9 °F 12.6 °F 1011.7 in SW 13.0 mph 13.0 mph 26 % 0.0 in
15:44 35.4 °F 12.4 °F 1011.7 in ESE 3.9 mph 3.9 mph 25 % 0.0 in
15:49 35.7 °F 12.0 °F 1011.7 in South 13.0 mph 13.0 mph 24 % 0.0 in
15:54 35.7 °F 12.6 °F 1011.7 in WSW 9.3 mph 9.3 mph 25 % 0.0 in
15:59 36.0 °F 12.3 °F 1011.7 in SW 8.7 mph 8.7 mph 24 % 0.0 in
16:04 36.0 °F 12.3 °F 1011.7 in West 11.9 mph 11.9 mph 24 % 0.0 in
16:09 36.0 °F 12.3 °F 1011.7 in South 11.1 mph 11.1 mph 24 % 0.0 in
16:14 36.0 °F 12.3 °F 1011.7 in SW 5.6 mph 5.6 mph 24 % 0.0 in
16:19 35.7 °F 12.0 °F 1011.7 in ESE 9.3 mph 9.3 mph 24 % 0.0 in
16:24 34.9 °F 11.9 °F 1011.7 in SW 9.3 mph 9.3 mph 25 % 0.0 in
16:29 34.3 °F 11.4 °F 1011.7 in East 6.4 mph 6.4 mph 25 % 0.0 in
16:34 34.7 °F 11.8 °F 1011.7 in WNW 7.4 mph 7.4 mph 25 % 0.0 in
16:39 35.0 °F 10.8 °F 1011.7 in SW 14.8 mph 14.8 mph 23 % 0.0 in
16:44 34.9 °F 11.3 °F 1011.7 in SW 13.0 mph 13.0 mph 24 % 0.0 in
16:49 34.6 °F 11.1 °F 1011.7 in SW 9.3 mph 9.3 mph 24 % 0.0 in
16:54 34.5 °F 10.3 °F 1011.7 in SW 9.3 mph 9.3 mph 23 % 0.0 in
16:59 34.6 °F 10.4 °F 1011.7 in SW 11.4 mph 11.4 mph 23 % 0.0 in
17:04 34.5 °F 10.3 °F 1011.7 in SW 9.3 mph 9.3 mph 23 % 0.0 in
17:09 34.6 °F 10.4 °F 1011.7 in SW 13.0 mph 13.0 mph 23 % 0.0 in
17:14 34.1 °F 9.4 °F 1011.7 in SSW 11.1 mph 11.1 mph 22 % 0.0 in
17:19 34.4 °F 10.3 °F 1010.7 in SW 9.3 mph 9.3 mph 23 % 0.0 in
17:24 34.6 °F 9.8 °F 1010.7 in WSW 9.3 mph 9.3 mph 22 % 0.0 in
17:29 34.5 °F 9.7 °F 1010.7 in SW 11.1 mph 11.1 mph 22 % 0.0 in
17:34 34.3 °F 9.5 °F 1010.7 in SSW 11.1 mph 11.1 mph 22 % 0.0 in
17:35 34.4 °F 9.6 °F 1010.7 in SW 7.4 mph 7.4 mph 22 % 0.0 in
17:40 34.5 °F 9.7 °F 1010.7 in SW 9.3 mph 9.3 mph 22 % 0.0 in
17:45 34.5 °F 9.7 °F 1010.7 in WSW 11.1 mph 11.1 mph 22 % 0.0 in
17:50 34.0 °F 9.3 °F 1010.0 in SSW 13.0 mph 13.0 mph 22 % 0.0 in
17:55 33.7 °F 8.3 °F 1010.0 in West 13.0 mph 13.0 mph 21 % 0.0 in
18:00 33.7 °F 8.3 °F 1010.0 in SW 14.8 mph 14.8 mph 21 % 0.0 in
18:02 33.7 °F 8.3 °F 1010.0 in SW 9.3 mph 9.3 mph 21 % 0.0 in
18:07 33.5 °F 8.2 °F 1010.0 in SW 13.0 mph 13.0 mph 21 % 0.0 in
18:12 33.6 °F 7.6 °F 1010.0 in WSW 9.3 mph 9.3 mph 20 % 0.0 in
18:17 33.5 °F 7.4 °F 1010.0 in WSW 13.0 mph 13.0 mph 20 % 0.0 in
18:22 33.2 °F 6.4 °F 1010.0 in SSW 22.2 mph 22.2 mph 19 % 0.0 in
18:27 33.3 °F 6.6 °F 1010.0 in SW 11.1 mph 11.1 mph 19 % 0.0 in
18:32 33.1 °F 6.4 °F 1010.0 in SSW 13.0 mph 13.0 mph 19 % 0.0 in
18:37 33.1 °F 5.6 °F 1010.0 in SW 13.0 mph 13.0 mph 18 % 0.0 in
18:42 32.8 °F 4.6 °F 1010.0 in West 14.8 mph 14.8 mph 17 % 0.0 in
18:47 32.7 °F 5.3 °F 1009.0 in SW 14.8 mph 14.8 mph 18 % 0.0 in
18:52 32.7 °F 5.3 °F 1009.0 in WSW 14.8 mph 14.8 mph 18 % 0.0 in
18:57 32.4 °F 4.2 °F 1009.0 in SSW 11.1 mph 11.1 mph 17 % 0.0 in
19:02 32.4 °F 4.2 °F 1010.0 in SW 11.1 mph 11.1 mph 17 % 0.0 in
19:07 32.3 °F 4.1 °F 1010.0 in WSW 11.1 mph 11.1 mph 17 % 0.0 in
19:12 32.0 °F 3.9 °F 1010.0 in SSW 11.1 mph 11.1 mph 17 % 0.0 in
19:17 31.8 °F 4.6 °F 1010.0 in SW 11.1 mph 11.1 mph 18 % 0.0 in
19:22 31.6 °F 4.4 °F 1010.0 in SW 18.5 mph 18.5 mph 18 % 0.0 in
19:27 31.2 °F 4.8 °F 1010.0 in SSW 13.0 mph 13.0 mph 19 % 0.0 in
19:32 31.3 °F 5.7 °F 1010.0 in SSW 11.1 mph 11.1 mph 20 % 0.0 in
19:37 31.2 °F 5.6 °F 1010.0 in SW 7.4 mph 7.4 mph 20 % 0.0 in
19:42 30.7 °F 5.9 °F 1010.0 in SW 10.3 mph 10.3 mph 21 % 0.0 in
19:47 30.6 °F 5.8 °F 1010.0 in SW 14.8 mph 14.8 mph 21 % 0.0 in
19:52 30.4 °F 6.3 °F 1010.0 in SW 11.1 mph 11.1 mph 22 % 0.0 in
19:57 30.3 °F 6.2 °F 1010.0 in WSW 7.4 mph 7.4 mph 22 % 0.0 in
20:02 30.0 °F 5.9 °F 1010.0 in SW 13.0 mph 13.0 mph 22 % 0.0 in
20:07 29.9 °F 6.5 °F 1010.0 in SW 9.0 mph 9.0 mph 23 % 0.0 in
20:12 29.7 °F 6.3 °F 1010.0 in SSW 11.1 mph 11.1 mph 23 % 0.0 in
20:17 29.4 °F 6.7 °F 1010.7 in WSW 9.3 mph 9.3 mph 24 % 0.0 in
20:22 29.2 °F 6.6 °F 1010.7 in WSW 7.4 mph 7.4 mph 24 % 0.0 in
20:27 29.0 °F 7.0 °F 1010.7 in SW 9.3 mph 9.3 mph 25 % 0.0 in
20:32 28.8 °F 6.8 °F 1010.7 in SW 9.5 mph 9.5 mph 25 % 0.0 in
20:37 28.7 °F 7.3 °F 1010.7 in WSW 7.4 mph 7.4 mph 26 % 0.0 in
20:42 28.5 °F 7.1 °F 1010.7 in SSW 10.0 mph 10.0 mph 26 % 0.0 in
20:47 28.3 °F 7.5 °F 1010.7 in SW 7.4 mph 7.4 mph 27 % 0.0 in
20:52 28.0 °F 7.3 °F 1010.7 in SW 8.7 mph 8.7 mph 27 % 0.0 in
20:57 27.8 °F 7.6 °F 1010.7 in WSW 9.3 mph 9.3 mph 28 % 0.0 in
21:02 27.6 °F 7.4 °F 1011.7 in SW 7.4 mph 7.4 mph 28 % 0.0 in
21:07 27.4 °F 7.3 °F 1011.7 in SW 7.4 mph 7.4 mph 28 % 0.0 in
21:12 27.2 °F 7.1 °F 1011.7 in SW 11.1 mph 11.1 mph 28 % 0.0 in
21:17 27.0 °F 7.4 °F 1010.7 in SW 11.9 mph 11.9 mph 29 % 0.0 in
21:22 26.8 °F 7.3 °F 1010.7 in South 7.4 mph 7.4 mph 29 % 0.0 in
21:27 26.6 °F 7.6 °F 1010.7 in South 7.4 mph 7.4 mph 30 % 0.0 in
21:32 26.4 °F 7.4 °F 1011.7 in SW 5.6 mph 5.6 mph 30 % 0.0 in
21:37 26.2 °F 7.7 °F 1011.7 in SSW 5.0 mph 5.0 mph 31 % 0.0 in
21:42 26.0 °F 8.0 °F 1011.7 in SW 9.3 mph 9.3 mph 32 % 0.0 in
21:47 25.9 °F 8.4 °F 1011.7 in SW 3.9 mph 3.9 mph 33 % 0.0 in
21:52 25.8 °F 8.3 °F 1011.7 in SW 5.6 mph 5.6 mph 33 % 0.0 in
21:57 25.6 °F 8.6 °F 1011.7 in WSW 5.6 mph 5.6 mph 34 % 0.0 in
22:02 25.5 °F 8.9 °F 1011.7 in SW 2.6 mph 2.6 mph 35 % 0.0 in
22:07 25.4 °F 9.2 °F 1011.7 in SW 3.9 mph 3.9 mph 36 % 0.0 in
22:12 25.3 °F 9.2 °F 1011.7 in SW 3.7 mph 3.7 mph 36 % 0.0 in
22:17 25.2 °F 9.1 °F 1011.7 in West 3.7 mph 3.7 mph 36 % 0.0 in
22:22 25.1 °F 9.4 °F 1011.7 in West 1.9 mph   37 % 0.0 in
22:27 25.1 °F 9.4 °F 1011.7 in NW 1.9 mph   37 % 0.0 in
22:32 25.0 °F 9.7 °F 1011.7 in Calm     38 % 0.0 in
22:37 25.0 °F 9.3 °F 1011.7 in West 3.7 mph 3.7 mph 37 % 0.0 in
22:42 24.9 °F 9.6 °F 1011.7 in West 3.7 mph 3.7 mph 38 % 0.0 in
22:47 24.9 °F 9.6 °F 1011.7 in West 3.2 mph 3.2 mph 38 % 0.0 in
22:52 24.9 °F 9.6 °F 1011.7 in WSW 3.7 mph 3.7 mph 38 % 0.0 in
22:57 24.8 °F 9.9 °F 1011.7 in Calm     39 % 0.0 in
23:02 24.7 °F 9.8 °F 1011.7 in West 3.7 mph   39 % 0.0 in
23:07 24.5 °F 9.6 °F 1011.7 in West 3.7 mph 3.7 mph 39 % 0.0 in
23:12 24.5 °F 9.6 °F 1011.7 in West 2.3 mph 2.3 mph 39 % 0.0 in
23:17 24.5 °F 10.0 °F 1011.7 in WSW 2.3 mph 2.3 mph 40 % 0.0 in
23:22 24.4 °F 9.9 °F 1011.7 in West 3.7 mph 3.7 mph 40 % 0.0 in
23:27 24.4 °F 9.9 °F 1011.7 in WSW 3.7 mph 3.7 mph 40 % 0.0 in
23:32 24.3 °F 10.2 °F 1010.7 in WSW 2.3 mph 2.3 mph 41 % 0.0 in
23:37 24.3 °F 10.2 °F 1010.7 in WSW 6.1 mph 6.1 mph 41 % 0.0 in
23:42 24.4 °F 10.3 °F 1010.7 in WSW 5.6 mph 5.6 mph 41 % 0.0 in
23:47 24.3 °F 10.2 °F 1010.7 in WSW 5.6 mph 5.6 mph 41 % 0.0 in
23:52 24.2 °F 10.5 °F 1010.7 in SW 3.9 mph 3.9 mph 42 % 0.0 in
23:57 24.2 °F 10.5 °F 1010.7 in West 3.7 mph 3.7 mph 42 % 0.0 in
Meteo Sesrovires
Elogis d' Weather Underground - 1.5 mb

Guio original per  Jim McMurry - jmcmurry@mwt.net Adaptat per a la plantilla per  Wim van der Kuil - Leuven-Template.eu

Trobareu la nostra informacio del temps tambe a:

Weather Underground

AWEKAS